This is the latest recevied weather packets stored in our database for station/object EA7AVH-10. If no packets are shown the sender has not sent any weather packets the latest 10 day(s).
| Time | Temp. | Humidity | Pressure | Rain* | Wind** | Luminosity | Snow |
|---|---|---|---|---|---|---|---|
| 1777656732 | 18.89° C | 66% | 927.6 hPa | - | - | - | - |
| 1777655831 | 19.44° C | 64% | 927.5 hPa | - | - | - | - |
| 1777654949 | 18.89° C | 64% | 927.3 hPa | - | - | - | - |
| 1777654048 | 19.44° C | 64% | 927.3 hPa | - | - | - | - |
| 1777653147 | 19.44° C | 65% | 927.4 hPa | - | - | - | - |
| 1777652247 | 19.44° C | 64% | 927.2 hPa | - | - | - | - |
| 1777651346 | 20° C | 61% | 927.1 hPa | - | - | - | - |
| 1777650445 | 20° C | 62% | 927.3 hPa | - | - | - | - |
| 1777649544 | 19.44° C | 64% | 927.1 hPa | - | - | - | - |
| 1777648644 | 20° C | 63% | 927 hPa | - | - | - | - |
| 1777647743 | 20° C | 64% | 927.4 hPa | - | - | - | - |
| 1777646842 | 21.67° C | 60% | 927.4 hPa | - | - | - | - |
| 1777645941 | 21.67° C | 61% | 927.3 hPa | - | - | - | - |
| 1777645040 | 21.67° C | 62% | 927.5 hPa | - | - | - | - |
| 1777644139 | 20.56° C | 65% | 927.7 hPa | - | - | - | - |
| 1777643239 | 20° C | 66% | 927.7 hPa | - | - | - | - |
| 1777642338 | 19.44° C | 67% | 927.8 hPa | - | - | - | - |
| 1777641437 | 20° C | 68% | 927.9 hPa | - | - | - | - |
| 1777640536 | 18.89° C | 70% | 928.1 hPa | - | - | - | - |
| 1777639635 | 18.33° C | 72% | 927.9 hPa | - | - | - | - |
| 1777638734 | 17.22° C | 75% | 928.3 hPa | - | - | - | - |
| 1777637834 | 17.78° C | 75% | 928.4 hPa | - | - | - | - |
| 1777636933 | 17.22° C | 76% | 928.3 hPa | - | - | - | - |
| 1777636032 | 17.78° C | 74% | 928.4 hPa | - | - | - | - |
| 1777635131 | 18.33° C | 72% | 928.4 hPa | - | - | - | - |
* Rain since midnight (hover to see other rain measurements)
** Current wind speed in m/s (hover to see current wind gust speed)